createdAt,value
2017-12-25T00:00:33.732Z,-0.14
2017-12-25T00:03:01.207Z,-0.19
2017-12-25T00:05:28.672Z,-0.15
2017-12-25T00:07:56.152Z,-0.38
2017-12-25T00:10:23.612Z,-0.47
2017-12-25T00:12:51.200Z,-0.42
2017-12-25T00:15:18.668Z,-0.29
2017-12-25T00:17:46.168Z,-0.26
2017-12-25T00:20:13.632Z,-0.10
2017-12-25T00:22:41.108Z,0.09
2017-12-25T00:25:08.593Z,0.28
2017-12-25T00:27:36.056Z,0.22
2017-12-25T00:30:03.540Z,-0.04
2017-12-25T00:32:31.067Z,-0.21
2017-12-25T00:34:58.568Z,-0.23
2017-12-25T00:37:26.032Z,0.05
2017-12-25T00:39:53.492Z,0.10
2017-12-25T00:42:20.969Z,0.00
2017-12-25T00:44:48.433Z,-0.02
2017-12-25T00:47:15.925Z,0.17
2017-12-25T00:49:43.388Z,0.24
2017-12-25T00:52:10.856Z,0.23
2017-12-25T00:54:38.340Z,0.02
2017-12-25T00:57:05.808Z,-0.02
2017-12-25T00:59:33.271Z,0.20
2017-12-25T01:02:00.757Z,-0.15
2017-12-25T01:04:28.224Z,-0.48
2017-12-25T01:06:55.698Z,-0.30
2017-12-25T01:09:23.189Z,-0.30
2017-12-25T01:11:50.653Z,-0.16
2017-12-25T01:14:18.113Z,0.02
2017-12-25T01:16:45.593Z,0.07
2017-12-25T01:19:13.065Z,-0.11
2017-12-25T01:21:40.533Z,-0.08
2017-12-25T01:24:08.025Z,-0.51
2017-12-25T01:26:35.492Z,-0.66
2017-12-25T01:29:02.960Z,-0.67
2017-12-25T01:31:30.440Z,-0.42
2017-12-25T01:33:57.910Z,-0.46
2017-12-25T01:36:25.393Z,-0.31
2017-12-25T01:38:52.876Z,-0.21
2017-12-25T01:41:20.341Z,0.02
2017-12-25T01:43:47.805Z,-0.02
2017-12-25T01:46:15.292Z,-0.23
2017-12-25T01:48:42.759Z,-0.50
2017-12-25T01:51:10.336Z,-0.35
2017-12-25T01:53:40.709Z,-0.18
2017-12-25T01:56:10.121Z,-0.21
2017-12-25T01:58:46.329Z,-0.41
2017-12-25T02:04:31.404Z,-0.22
2017-12-25T02:10:03.952Z,-0.31
2017-12-25T02:12:31.424Z,-0.36
2017-12-25T02:14:58.909Z,-0.30
2017-12-25T02:17:26.376Z,-0.47
2017-12-25T02:19:53.864Z,-0.45
2017-12-25T02:22:21.333Z,-0.51
2017-12-25T02:24:48.819Z,-0.73
2017-12-25T02:27:16.309Z,-0.47
2017-12-25T02:29:43.789Z,-0.35
2017-12-25T02:32:11.289Z,-0.48
2017-12-25T02:34:38.769Z,-0.45
2017-12-25T02:37:06.236Z,-0.93
2017-12-25T02:39:33.726Z,-0.86
2017-12-25T02:42:01.215Z,-0.61
2017-12-25T02:44:28.712Z,-0.52
2017-12-25T02:46:56.201Z,-0.39
2017-12-25T02:49:23.692Z,-0.37
2017-12-25T02:51:51.165Z,-0.79
2017-12-25T02:54:18.646Z,-0.78
2017-12-25T02:56:46.137Z,-0.61
2017-12-25T02:59:13.607Z,-0.50
2017-12-25T03:01:41.092Z,-0.56
2017-12-25T03:04:08.565Z,-0.87
2017-12-25T03:06:36.061Z,-0.65
2017-12-25T03:09:03.541Z,-0.46
2017-12-25T03:11:31.017Z,-0.90
2017-12-25T03:13:58.510Z,-0.89
2017-12-25T03:16:25.984Z,-0.91
2017-12-25T03:18:53.473Z,-0.76
2017-12-25T03:21:20.949Z,-0.72
2017-12-25T03:23:48.442Z,-1.31
2017-12-25T03:26:15.918Z,-1.49
2017-12-25T03:28:43.386Z,-1.56
2017-12-25T03:31:10.872Z,-1.74
2017-12-25T03:33:38.349Z,-1.82
2017-12-25T03:36:05.849Z,-1.58
2017-12-25T03:38:33.336Z,-1.73
2017-12-25T03:41:00.808Z,-1.42
2017-12-25T03:43:28.289Z,-1.47
2017-12-25T03:45:55.776Z,-1.47
2017-12-25T03:48:23.244Z,-1.83
2017-12-25T03:50:50.709Z,-1.96
2017-12-25T03:53:18.225Z,-1.97
2017-12-25T03:55:45.711Z,-1.97
2017-12-25T03:58:13.181Z,-1.98
2017-12-25T04:00:40.673Z,-1.84
2017-12-25T04:03:08.144Z,-1.56
2017-12-25T04:05:35.612Z,-1.45
2017-12-25T04:08:03.102Z,-1.31
2017-12-25T04:10:30.572Z,-1.52
2017-12-25T04:12:58.049Z,-1.19
2017-12-25T04:15:25.541Z,-1.18
2017-12-25T04:17:53.017Z,-1.36
2017-12-25T04:20:20.492Z,-1.43
2017-12-25T04:22:47.985Z,-1.43
2017-12-25T04:25:15.461Z,-1.43
2017-12-25T04:27:42.935Z,-1.59
2017-12-25T04:30:10.421Z,-1.57
2017-12-25T04:32:37.892Z,-1.89
2017-12-25T04:35:05.356Z,-1.93
2017-12-25T04:37:32.840Z,-2.02
2017-12-25T04:40:00.316Z,-1.86
2017-12-25T04:42:27.794Z,-1.66
2017-12-25T04:44:55.276Z,-1.90
2017-12-25T04:47:22.810Z,-1.91
2017-12-25T04:49:50.310Z,-1.90
2017-12-25T04:52:17.827Z,-1.85
2017-12-25T04:54:45.321Z,-1.77
2017-12-25T04:57:12.784Z,-1.41
2017-12-25T04:59:40.254Z,-1.53
2017-12-25T05:02:07.740Z,-1.67
2017-12-25T05:04:35.205Z,-1.62
2017-12-25T05:07:02.685Z,-1.72
2017-12-25T05:09:30.160Z,-1.84
2017-12-25T05:11:57.648Z,-1.71
2017-12-25T05:14:25.117Z,-1.76
2017-12-25T05:16:52.585Z,-1.90
2017-12-25T05:19:20.076Z,-1.73
2017-12-25T05:21:47.553Z,-1.63
2017-12-25T05:24:15.049Z,-1.64
2017-12-25T05:26:42.521Z,-1.68
2017-12-25T05:29:10.012Z,-1.64
2017-12-25T05:31:37.496Z,-1.71
2017-12-25T05:34:04.966Z,-1.70
2017-12-25T05:36:32.457Z,-1.81
2017-12-25T05:38:59.929Z,-1.95
2017-12-25T05:41:27.424Z,-1.89
2017-12-25T05:43:54.901Z,-1.88
2017-12-25T05:46:22.393Z,-1.70
2017-12-25T05:48:49.867Z,-1.63
2017-12-25T05:51:17.402Z,-1.86
2017-12-25T05:53:44.905Z,-1.71
2017-12-25T05:56:12.376Z,-1.76
2017-12-25T05:58:39.843Z,-1.78
2017-12-25T06:01:07.324Z,-2.38
2017-12-25T06:03:34.788Z,-2.12
2017-12-25T06:06:02.252Z,-2.29
2017-12-25T06:08:29.744Z,-2.28
2017-12-25T06:10:57.216Z,-2.03
2017-12-25T06:13:24.688Z,-2.26
2017-12-25T06:15:52.173Z,-2.26
2017-12-25T06:18:19.645Z,-2.35
2017-12-25T06:20:47.122Z,-2.38
2017-12-25T06:23:14.609Z,-2.27
2017-12-25T06:25:42.076Z,-2.13
2017-12-25T06:28:09.545Z,-2.03
2017-12-25T06:30:37.030Z,-1.95
2017-12-25T06:33:04.504Z,-2.38
2017-12-25T06:35:31.976Z,-2.09
2017-12-25T06:37:59.473Z,-2.48
2017-12-25T06:40:26.944Z,-2.52
2017-12-25T06:42:54.425Z,-2.43
2017-12-25T06:45:21.921Z,-2.13
2017-12-25T06:47:49.399Z,-1.96
2017-12-25T06:50:16.873Z,-1.83
2017-12-25T06:52:44.361Z,-2.15
2017-12-25T06:55:11.868Z,-1.93
2017-12-25T06:57:39.406Z,-1.92
2017-12-25T07:00:06.997Z,-1.81
2017-12-25T07:02:34.473Z,-1.76
2017-12-25T07:05:01.944Z,-1.83
2017-12-25T07:07:29.438Z,-1.83
2017-12-25T07:09:56.904Z,-1.90
2017-12-25T07:12:24.392Z,-2.13
2017-12-25T07:14:51.856Z,-1.77
2017-12-25T07:17:19.320Z,-2.11
2017-12-25T07:19:46.815Z,-1.95
2017-12-25T07:22:16.349Z,-1.66
2017-12-25T07:24:45.013Z,-1.58
2017-12-25T07:27:12.481Z,-1.43
2017-12-25T07:29:39.953Z,-1.24
2017-12-25T07:32:07.468Z,-1.21
2017-12-25T07:34:34.936Z,-1.01
2017-12-25T07:37:02.421Z,-0.94
2017-12-25T07:39:29.903Z,-0.97
2017-12-25T07:41:57.407Z,-1.00
2017-12-25T07:44:24.872Z,-1.08
2017-12-25T07:46:52.345Z,-1.20
2017-12-25T07:49:19.869Z,-1.24
2017-12-25T07:51:47.342Z,-1.17
2017-12-25T07:54:14.838Z,-1.23
2017-12-25T07:56:42.344Z,-1.20
2017-12-25T07:59:09.840Z,-1.19
2017-12-25T08:01:37.332Z,-1.12
2017-12-25T08:04:04.804Z,-1.06
2017-12-25T08:06:32.296Z,-1.24
2017-12-25T08:08:59.835Z,-1.17
2017-12-25T08:11:27.325Z,-1.08
2017-12-25T08:13:54.790Z,-1.08
2017-12-25T08:16:22.267Z,-1.18
2017-12-25T08:18:49.753Z,-1.06
2017-12-25T08:21:17.217Z,-0.71
2017-12-25T08:23:44.684Z,-0.50
2017-12-25T08:26:12.172Z,-0.39
2017-12-25T08:28:39.641Z,-0.28
2017-12-25T08:31:07.116Z,-0.53
2017-12-25T08:33:34.603Z,-0.29
2017-12-25T08:36:02.078Z,-0.25
2017-12-25T08:38:29.544Z,-0.48
2017-12-25T08:40:57.056Z,-0.11
2017-12-25T08:43:24.533Z,-0.10
2017-12-25T08:45:51.996Z,-0.20
2017-12-25T08:48:19.830Z,-0.10
2017-12-25T08:50:47.293Z,0.02
2017-12-25T08:53:14.761Z,-0.10
2017-12-25T08:55:42.253Z,-0.23
2017-12-25T08:58:09.720Z,-0.32
2017-12-25T09:00:37.185Z,-0.34
2017-12-25T09:03:04.668Z,-0.27
2017-12-25T09:05:32.133Z,-0.29
2017-12-25T09:07:59.599Z,-0.33
2017-12-25T09:10:27.097Z,-0.29
2017-12-25T09:12:54.577Z,-0.11
2017-12-25T09:15:22.045Z,0.16
2017-12-25T09:17:49.596Z,0.22
2017-12-25T09:20:17.064Z,0.39
2017-12-25T09:22:44.545Z,0.53
2017-12-25T09:25:12.017Z,0.28
2017-12-25T09:27:39.492Z,0.26
2017-12-25T09:30:06.993Z,-0.05
2017-12-25T09:32:34.478Z,-0.20
2017-12-25T09:35:02.103Z,-0.13
2017-12-25T09:37:29.578Z,0.00
2017-12-25T09:39:57.060Z,-0.02
2017-12-25T09:42:24.533Z,-0.02
2017-12-25T09:44:52.005Z,0.17
2017-12-25T09:47:19.491Z,0.26
2017-12-25T09:49:46.956Z,0.33
2017-12-25T09:52:14.443Z,0.54
2017-12-25T09:54:41.904Z,0.61
2017-12-25T09:57:09.388Z,0.89
2017-12-25T09:59:36.948Z,0.81
2017-12-25T10:02:04.409Z,1.04
2017-12-25T10:04:31.943Z,1.19
2017-12-25T10:06:59.404Z,1.37
2017-12-25T10:09:26.884Z,1.41
2017-12-25T10:11:54.345Z,1.54
2017-12-25T10:14:21.824Z,1.66
2017-12-25T10:16:49.291Z,1.84
2017-12-25T10:19:16.753Z,1.54
2017-12-25T10:21:44.241Z,1.50
2017-12-25T10:24:11.704Z,1.66
2017-12-25T10:26:39.223Z,2.81
2017-12-25T10:29:06.668Z,3.20
2017-12-25T10:31:34.608Z,3.68
2017-12-25T10:34:02.077Z,4.59
2017-12-25T10:36:29.560Z,6.14
2017-12-25T10:38:57.026Z,7.62
2017-12-25T10:41:24.497Z,9.72
2017-12-25T10:43:52.046Z,12.80
2017-12-25T10:46:19.518Z,14.43
2017-12-25T10:48:46.989Z,15.15
2017-12-25T10:51:14.484Z,15.68
2017-12-25T10:53:41.952Z,14.18
2017-12-25T10:56:09.424Z,13.75
2017-12-25T10:58:36.913Z,14.44
2017-12-25T11:01:04.507Z,14.95
2017-12-25T11:03:31.981Z,13.25
2017-12-25T11:05:59.471Z,13.32
2017-12-25T11:08:26.977Z,12.46
2017-12-25T11:10:54.442Z,12.28
2017-12-25T11:13:21.928Z,13.03
2017-12-25T11:15:49.405Z,15.08
2017-12-25T11:18:16.872Z,15.33
2017-12-25T11:20:44.356Z,17.99
2017-12-25T11:23:11.836Z,17.91
2017-12-25T11:25:39.320Z,17.61
2017-12-25T11:28:06.810Z,16.94
2017-12-25T11:30:34.293Z,18.14
2017-12-25T11:33:01.805Z,17.52
2017-12-25T11:35:29.269Z,16.33
2017-12-25T11:37:56.764Z,15.90
2017-12-25T11:40:24.251Z,15.89
2017-12-25T11:42:51.721Z,15.24
2017-12-25T11:45:19.228Z,15.70
2017-12-25T11:47:46.704Z,15.70
2017-12-25T11:50:14.185Z,17.15
2017-12-25T11:52:41.648Z,17.24
2017-12-25T11:55:09.148Z,17.65
2017-12-25T11:57:36.612Z,17.80
2017-12-25T12:00:04.099Z,16.96
2017-12-25T12:02:31.576Z,18.04
2017-12-25T12:04:59.044Z,18.51
2017-12-25T12:07:26.528Z,18.24
2017-12-25T12:09:54.010Z,18.21
2017-12-25T12:12:21.511Z,19.32
2017-12-25T12:14:49.020Z,20.29
2017-12-25T12:17:16.484Z,20.52
2017-12-25T12:19:43.955Z,19.59
2017-12-25T12:22:11.440Z,21.06
2017-12-25T12:24:38.912Z,21.76
2017-12-25T12:27:06.378Z,22.75
2017-12-25T12:29:33.856Z,22.43
2017-12-25T12:32:01.341Z,23.18
2017-12-25T12:34:28.821Z,22.56
2017-12-25T12:36:56.320Z,21.84
2017-12-25T12:39:23.790Z,20.78
2017-12-25T12:41:51.273Z,21.35
2017-12-25T12:44:18.768Z,21.39
2017-12-25T12:46:46.228Z,21.01
2017-12-25T12:49:13.704Z,22.70
2017-12-25T12:51:41.155Z,22.30
2017-12-25T12:54:08.662Z,19.30
2017-12-25T12:56:36.125Z,14.33
2017-12-25T12:59:03.597Z,12.37
2017-12-25T13:01:31.107Z,10.16
2017-12-25T13:03:58.592Z,8.06
2017-12-25T13:06:26.084Z,6.75
2017-12-25T13:08:53.573Z,6.05
2017-12-25T13:11:21.069Z,5.58
2017-12-25T13:13:48.558Z,5.35
2017-12-25T13:16:16.146Z,4.59
2017-12-25T13:18:43.638Z,4.37
2017-12-25T13:21:11.112Z,4.46
2017-12-25T13:23:38.593Z,4.28
2017-12-25T13:26:06.076Z,4.11
2017-12-25T13:28:33.552Z,3.95
2017-12-25T13:31:01.135Z,3.94
2017-12-25T13:33:28.637Z,3.86
2017-12-25T13:35:56.121Z,3.95
2017-12-25T13:38:23.585Z,3.72
2017-12-25T13:40:51.060Z,3.70
2017-12-25T13:43:18.625Z,3.64
2017-12-25T13:45:46.092Z,3.81
2017-12-25T13:48:13.552Z,3.72
2017-12-25T13:50:41.036Z,3.73
2017-12-25T13:53:08.500Z,3.71
2017-12-25T13:55:35.973Z,3.66
2017-12-25T13:58:03.454Z,3.60
2017-12-25T14:00:30.937Z,3.52
2017-12-25T14:02:58.508Z,3.49
2017-12-25T14:05:26.073Z,3.46
2017-12-25T14:07:53.537Z,3.39
2017-12-25T14:10:21.001Z,3.44
2017-12-25T14:12:48.484Z,3.34
2017-12-25T14:15:15.941Z,3.24
2017-12-25T14:17:43.484Z,3.09
2017-12-25T14:20:10.993Z,2.96
2017-12-25T14:22:38.453Z,2.90
2017-12-25T14:25:05.917Z,2.69
2017-12-25T14:27:33.392Z,2.53
2017-12-25T14:30:00.860Z,2.46
2017-12-25T14:32:28.321Z,2.34
2017-12-25T14:34:55.808Z,2.35
2017-12-25T14:37:23.269Z,2.11
2017-12-25T14:39:50.728Z,2.02
2017-12-25T14:42:18.216Z,1.86
2017-12-25T14:44:45.681Z,1.71
2017-12-25T14:47:13.145Z,1.50
2017-12-25T14:49:40.627Z,1.24
2017-12-25T14:52:08.088Z,1.14
2017-12-25T14:54:35.565Z,1.05
2017-12-25T14:57:03.033Z,1.07
2017-12-25T14:59:30.517Z,0.82
2017-12-25T15:01:57.981Z,0.67
2017-12-25T15:04:25.445Z,0.41
2017-12-25T15:06:52.928Z,0.43
2017-12-25T15:09:20.393Z,0.26
2017-12-25T15:11:47.876Z,0.24
2017-12-25T15:14:15.402Z,0.24
2017-12-25T15:16:42.925Z,0.00
2017-12-25T15:19:10.395Z,0.08
2017-12-25T15:21:37.869Z,-0.01
2017-12-25T15:24:05.357Z,-0.08
2017-12-25T15:26:32.829Z,-0.19
2017-12-25T15:29:00.320Z,-0.45
2017-12-25T15:31:27.799Z,-0.56
2017-12-25T15:33:55.289Z,-0.64
2017-12-25T15:36:22.766Z,-0.81
2017-12-25T15:38:50.237Z,-0.90
2017-12-25T15:41:17.724Z,-1.06
2017-12-25T15:43:45.193Z,-1.28
2017-12-25T15:46:12.677Z,-1.31
2017-12-25T15:48:40.164Z,-1.45
2017-12-25T15:51:07.633Z,-1.30
2017-12-25T15:53:35.128Z,-1.29
2017-12-25T15:56:02.597Z,-1.54
2017-12-25T15:58:30.089Z,-1.31
2017-12-25T16:00:57.561Z,-1.50
2017-12-25T16:03:25.037Z,-1.41
2017-12-25T16:05:52.529Z,-1.48
2017-12-25T16:08:20.035Z,-1.49
2017-12-25T16:10:47.505Z,-1.69
2017-12-25T16:13:14.992Z,-1.57
2017-12-25T16:15:42.451Z,-1.67
2017-12-25T16:18:09.921Z,-1.64
2017-12-25T16:20:37.409Z,-1.90
2017-12-25T16:23:04.872Z,-1.76
2017-12-25T16:25:32.339Z,-1.78
2017-12-25T16:27:59.949Z,-1.91
2017-12-25T16:30:27.415Z,-2.00
2017-12-25T16:32:54.881Z,-2.16
2017-12-25T16:35:22.360Z,-2.26
2017-12-25T16:37:49.932Z,-2.24
2017-12-25T16:40:17.401Z,-2.24
2017-12-25T16:42:44.889Z,-2.29
2017-12-25T16:45:12.352Z,-2.29
2017-12-25T16:47:39.820Z,-2.40
2017-12-25T16:50:07.305Z,-2.42
2017-12-25T16:52:34.991Z,-2.48
2017-12-25T16:55:02.509Z,-2.62
2017-12-25T16:57:30.103Z,-2.75
2017-12-25T16:59:57.577Z,-2.80
2017-12-25T17:02:25.087Z,-2.90
2017-12-25T17:04:52.545Z,-2.98
2017-12-25T17:07:20.013Z,-2.96
2017-12-25T17:09:47.481Z,-2.95
2017-12-25T17:12:14.963Z,-2.96
2017-12-25T17:14:42.428Z,-3.04
2017-12-25T17:17:09.900Z,-3.07
2017-12-25T17:19:37.381Z,-3.02
2017-12-25T17:22:04.849Z,-3.08
2017-12-25T17:24:32.336Z,-3.04
2017-12-25T17:26:59.900Z,-3.00
2017-12-25T17:29:27.371Z,-2.96
2017-12-25T17:31:54.852Z,-2.96
2017-12-25T17:34:22.313Z,-2.97
2017-12-25T17:36:49.793Z,-3.00
2017-12-25T17:39:17.261Z,-3.07
2017-12-25T17:41:44.766Z,-3.07
2017-12-25T17:44:12.252Z,-3.07
2017-12-25T17:46:42.837Z,-3.12
2017-12-25T17:49:10.514Z,-3.11
2017-12-25T17:51:37.980Z,-3.05
2017-12-25T17:54:05.444Z,-3.01
2017-12-25T17:56:32.930Z,-2.93
2017-12-25T17:59:00.401Z,-3.08
2017-12-25T18:01:27.885Z,-3.17
2017-12-25T18:03:55.367Z,-3.18
2017-12-25T18:06:22.833Z,-3.27
2017-12-25T18:08:50.323Z,-3.28
2017-12-25T18:11:17.805Z,-3.20
2017-12-25T18:13:45.309Z,-3.22
2017-12-25T18:16:12.773Z,-3.20
2017-12-25T18:18:40.245Z,-3.23
2017-12-25T18:21:07.741Z,-3.23
2017-12-25T18:23:35.209Z,-3.20
2017-12-25T18:26:02.693Z,-3.19
2017-12-25T18:28:30.156Z,-3.12
2017-12-25T18:30:57.625Z,-3.11
2017-12-25T18:33:25.141Z,-3.13
2017-12-25T18:35:52.617Z,-3.14
2017-12-25T18:38:20.089Z,-3.22
2017-12-25T18:40:47.573Z,-3.25
2017-12-25T18:43:15.067Z,-3.26
2017-12-25T18:45:42.553Z,-3.36
2017-12-25T18:48:10.037Z,-3.41
2017-12-25T18:50:37.505Z,-3.49
2017-12-25T18:53:04.974Z,-3.55
2017-12-25T18:55:32.461Z,-3.56
2017-12-25T18:57:59.929Z,-3.59
2017-12-25T19:00:27.399Z,-3.57
2017-12-25T19:02:54.896Z,-3.44
2017-12-25T19:05:22.361Z,-3.54
2017-12-25T19:07:49.825Z,-3.44
2017-12-25T19:10:17.326Z,-3.48
2017-12-25T19:12:44.800Z,-3.43
2017-12-25T19:15:12.269Z,-3.12
2017-12-25T19:17:39.770Z,-2.95
2017-12-25T19:20:07.337Z,-2.98
2017-12-25T19:22:34.808Z,-2.93
2017-12-25T19:25:02.307Z,-2.95
2017-12-25T19:27:29.776Z,-2.91
2017-12-25T19:29:57.245Z,-3.02
2017-12-25T19:32:24.737Z,-3.03
2017-12-25T19:34:52.208Z,-2.80
2017-12-25T19:37:19.680Z,-2.54
2017-12-25T19:39:47.166Z,-2.77
2017-12-25T19:42:14.632Z,-2.89
2017-12-25T19:44:42.101Z,-2.95
2017-12-25T19:47:09.584Z,-3.05
2017-12-25T19:49:37.056Z,-3.12
2017-12-25T19:52:04.548Z,-3.31
2017-12-25T19:54:32.017Z,-3.47
2017-12-25T19:56:59.485Z,-3.45
2017-12-25T19:59:26.968Z,-3.37
2017-12-25T20:01:54.439Z,-3.38
2017-12-25T20:04:21.929Z,-3.46
2017-12-25T20:06:49.396Z,-3.54
2017-12-25T20:09:16.892Z,-3.55
2017-12-25T20:11:44.376Z,-3.62
2017-12-25T20:14:11.857Z,-3.75
2017-12-25T20:16:39.340Z,-3.81
2017-12-25T20:19:06.806Z,-3.88
2017-12-25T20:21:34.307Z,-3.92
2017-12-25T20:24:01.776Z,-4.00
2017-12-25T20:26:29.252Z,-3.97
2017-12-25T20:28:56.741Z,-3.94
2017-12-25T20:31:24.220Z,-3.94
2017-12-25T20:33:51.684Z,-3.97
2017-12-25T20:36:19.177Z,-3.94
2017-12-25T20:38:46.644Z,-3.93
2017-12-25T20:41:14.133Z,-3.88
2017-12-25T20:43:41.600Z,-3.90
2017-12-25T20:46:09.064Z,-3.94
2017-12-25T20:48:36.564Z,-3.96
2017-12-25T20:51:04.069Z,-3.91
2017-12-25T20:53:31.532Z,-3.92
2017-12-25T20:55:59.014Z,-4.00
2017-12-25T20:58:26.480Z,-4.01
2017-12-25T21:00:54.005Z,-4.01
2017-12-25T21:03:21.501Z,-4.03
2017-12-25T21:05:48.968Z,-4.00
2017-12-25T21:08:16.464Z,-3.98
2017-12-25T21:10:43.948Z,-4.02
2017-12-25T21:13:11.421Z,-4.10
2017-12-25T21:15:38.889Z,-4.25
2017-12-25T21:18:06.389Z,-4.38
2017-12-25T21:20:33.856Z,-4.33
2017-12-25T21:23:01.345Z,-4.31
2017-12-25T21:25:28.817Z,-4.18
2017-12-25T21:27:56.295Z,-3.94
2017-12-25T21:30:23.785Z,-3.89
2017-12-25T21:32:51.253Z,-3.77
2017-12-25T21:35:18.745Z,-3.74
2017-12-25T21:37:46.248Z,-3.73
2017-12-25T21:40:13.712Z,-3.67
2017-12-25T21:42:41.252Z,-3.77
2017-12-25T21:45:08.681Z,-3.79
2017-12-25T21:47:36.173Z,-3.77
2017-12-25T21:50:03.646Z,-3.85
2017-12-25T21:52:31.114Z,-3.98
2017-12-25T21:54:58.597Z,-4.15
2017-12-25T21:57:26.068Z,-4.21
2017-12-25T21:59:53.538Z,-4.24
2017-12-25T22:02:21.026Z,-4.25
2017-12-25T22:04:48.504Z,-4.15
2017-12-25T22:07:15.985Z,-4.05
2017-12-25T22:09:43.520Z,-4.04
2017-12-25T22:12:10.989Z,-3.91
2017-12-25T22:14:38.452Z,-4.07
2017-12-25T22:17:05.936Z,-4.14
2017-12-25T22:19:33.408Z,-3.86
2017-12-25T22:22:00.886Z,-3.63
2017-12-25T22:24:28.383Z,-3.61
2017-12-25T22:26:55.909Z,-3.73
2017-12-25T22:29:25.718Z,-3.47
2017-12-25T22:31:53.405Z,-3.61
2017-12-25T22:34:20.879Z,-3.08
2017-12-25T22:36:48.421Z,-1.54
2017-12-25T22:39:15.892Z,-1.34
2017-12-25T22:41:43.377Z,-1.68
2017-12-25T22:44:10.845Z,-2.49
2017-12-25T22:46:38.317Z,-3.01
2017-12-25T22:49:05.805Z,-3.40
2017-12-25T22:51:33.277Z,-3.45
2017-12-25T22:54:00.765Z,-3.44
2017-12-25T22:56:28.231Z,-3.51
2017-12-25T22:58:55.714Z,-3.44
2017-12-25T23:01:23.178Z,-3.50
2017-12-25T23:03:50.640Z,-3.50
2017-12-25T23:06:18.128Z,-3.47
2017-12-25T23:08:45.604Z,-3.57
2017-12-25T23:11:13.104Z,-3.84
2017-12-25T23:13:40.569Z,-4.09
2017-12-25T23:16:08.057Z,-4.28
2017-12-25T23:18:35.547Z,-4.38
2017-12-25T23:21:03.017Z,-4.36
2017-12-25T23:23:30.500Z,-4.20
2017-12-25T23:25:57.973Z,-4.01
2017-12-25T23:28:25.439Z,-4.18
2017-12-25T23:30:52.929Z,-4.29
2017-12-25T23:33:20.405Z,-4.31
2017-12-25T23:35:47.869Z,-4.46
2017-12-25T23:38:15.445Z,-4.52
2017-12-25T23:40:42.941Z,-4.47
2017-12-25T23:43:10.444Z,-4.36
2017-12-25T23:45:37.934Z,-4.33
2017-12-25T23:48:05.413Z,-4.18
2017-12-25T23:50:33.594Z,-4.18
2017-12-25T23:53:01.108Z,-4.22
2017-12-25T23:55:28.595Z,-4.33
2017-12-25T23:57:56.100Z,-4.42
